KLNR/LNR METAR and TAF weather

Enter ICAO airport designator
Station Type Date Time Source
KLNR METAR 2019/12/08 23:56 UTC NOAA

KLNR 082356Z AUTO 11004KT 8SM CLR 01/M01 A2979 RMK AO2 SLP090 T00061011 10078 20006 53009


Station Type Date Time Source
KLNR Decoded METAR 2019/12/08 23:56 UTC NOAA

LONE ROCK TRI-COUNTY REG, WI, United States (KLNR) 43-13N 090-11W 217M
Dec 08, 2019 - 06:56 PM EST / 2019.12.08 2356 UTC
Wind: from the ESE (110 degrees) at 5 MPH (4 KT):0
Visibility: 8 mile(s):0
Sky conditions: clear
Temperature: 33.1 F (0.6 C)
Windchill: 28 F (-2 C):1
Dew Point: 30.0 F (-1.1 C)
Relative Humidity: 88%
Pressure (altimeter): 29.79 in. Hg (1008 hPa)
Pressure tendency: 0.03 inches (0.9 hPa) higher than three hours ago
ob: KLNR 082356Z AUTO 11004KT 8SM CLR 01/M01 A2979 RMK AO2 SLP090 T00061011 10078 20006 53009
cycle: 0

Station Type Date Time Source
KLNR TAF UTC NOAA

Error!

Example: see airport list